x

Settlement Point, Gbi (spgf1) Weather Station

2:00pm - Mon 3rd Aug 2015 All times are EDT. -4 hours from GMT.

  • Wind
    15mph, 16mph gusts
  • Air Temp 85°f
  • Sea Pressure 1017.2mb
  • Settlement Point, Gbi
  • Settlement Point, Gbi

More Historic Weather Station data

Upgrade to MSW Pro to gain access to the past 30 days of data for over 8000 Wavebouys and Weather Stations around the globe.

Join Pro

Comparision Forecast

View Surf forecast
   
Mon 08/03 2:00pm 15 16 mph 1017.2mb 85f
1:00pm 16 17 mph 1017.7mb 84f
12:00pm 17 20 mph 1017.8mb 84f
11:00am 13 16 mph 1017.5mb 84f
10:00am 15 17 mph 1016.9mb 84f
9:00am 11 14 mph 1016.3mb 84f
8:00am 9 14 mph 1016mb 83f
7:00am 9 10 mph 1015.4mb 82f
6:00am 11 15 mph 1014.6mb 82f
5:00am 14 16 mph 1014.6mb 82f
4:00am 13 16 mph 1015.1mb 82f
3:00am 10 13 mph 1015.1mb 82f
2:00am 9 10 mph 1016.1mb 82f
1:00am 7 8 mph 1016.4mb 82f
12:00am 3 5 mph 1016.5mb 83f
Sun 08/02 11:00pm  -  1 mph 1016.5mb 82f
10:00pm 6 7 mph 1016.3mb 83f
9:00pm 5 6 mph 1016.1mb 84f
8:00pm 8
mph
1015.8mb 84f
7:00pm 8 9 mph 1015.3mb 85f
6:00pm 11 13 mph 1015.4mb 85f
5:00pm 14 17 mph 1015.5mb 85f
4:00pm 11 14 mph 1016mb 86f
3:00pm 11 14 mph 1016.4mb 86f
2:00pm 13 15 mph 1016.6mb 86f
1:00pm 13 16 mph 1016.7mb 86f
12:00pm 11 14 mph 1016.8mb 85f
11:00am 10 13 mph 1016.8mb 85f
10:00am 10 13 mph 1016.5mb 85f
9:00am 7 8 mph 1016.2mb 85f
8:00am 9 11 mph 1015.8mb 84f
7:00am 6 8 mph 1015.5mb 82f
6:00am 8 9 mph 1015mb 82f
5:00am 5 6 mph 1015.5mb 80f
4:00am 6 7 mph 1015.4mb 80f
3:00am 10 14 mph 1015.7mb 81f
2:00am 16 21 mph 1016.6mb 81f
1:00am 9 11 mph 1016.6mb 81f
12:00am 7 8 mph 1017mb 82f
Sat 08/01 11:00pm 3 5 mph 1017.7mb 81f
10:00pm 21 23 mph 1018.7mb 79f
9:00pm 21 24 mph 1017.8mb 80f
8:00pm 9 11 mph 1016.4mb 85f
7:00pm 9 13 mph 1015.7mb 85f
6:00pm 13 16 mph 1015.4mb 86f
5:00pm 15 16 mph 1015.8mb 86f
4:00pm 15 17 mph 1016mb 86f
3:00pm 16 20 mph 1016.4mb 86f
2:00pm 16 20 mph 1016.5mb 86f
1:00pm 15 18 mph 1017.3mb 86f
12:00pm 15 17 mph 1017.5mb 86f
11:00am 13 16 mph 1017.4mb 85f
10:00am 8 10 mph 1017.3mb 85f
9:00am 9 11 mph 1017.4mb 85f
8:00am 10
mph
1017.1mb 84f
7:00am 15 17 mph 1016.7mb 84f
6:00am 10 13 mph 1016.5mb 83f
5:00am 10 13 mph 1016.6mb 83f
4:00am 6 7 mph 1017.3mb 83f
3:00am 14 15 mph 1017.3mb 83f
2:00am 7 8 mph 1017.1mb 80f
1:00am 7 8 mph 1018.1mb 80f
12:00am 8 9 mph 1018.5mb 82f
Fri 07/31 11:00pm 9 11 mph 1019.1mb 82f
10:00pm 2
mph
1018.4mb 83f
9:00pm 18 21 mph 1017.4mb 84f
8:00pm 18 20 mph 1017.6mb 83f
7:00pm 21 23 mph 1016.8mb 83f
6:00pm 13 15 mph 1016.6mb 86f
5:00pm 11 13 mph 1016.4mb 87f
4:00pm 11 14 mph 1017mb 87f
3:00pm 8 10 mph 1017.8mb 86f
2:00pm 9 11 mph 1017.9mb 85f
1:00pm 10 11 mph 1017.7mb 86f
12:00pm 8 9 mph 1018.3mb 86f
11:00am 9 10 mph 1018.6mb 86f
10:00am 10 13 mph 1018.4mb 86f
9:00am 9 10 mph 1017.9mb 85f
8:00am 9 11 mph 1017.3mb 85f
7:00am 7
mph
1017.1mb 85f
6:00am 9 10 mph 1016.7mb 85f
5:00am 7 8 mph 1016.9mb 85f
4:00am 6 9 mph 1016.6mb 85f
3:00am 8 9 mph 1016.6mb 86f
2:00am 13 15 mph 1017.1mb 85f
1:00am 10 14 mph 1017.4mb 85f
12:00am 5 6 mph 1017.8mb 82f
Thu 07/30 11:00pm 5
mph
1017.8mb 82f
10:00pm 9
mph
1017.4mb 83f
9:00pm 8 9 mph 1017.3mb 85f
8:00pm 13 14 mph 1016.5mb 85f